Time;durP1;ratioP1;P1;durP2;ratioP2;P2;SDS_P1;SDS_P2;PMS_P1;PMS_P2;Temp;Humidity;BMP_temperature;BMP_pressure;BME280_temperature;BME280_humidity;BME280_pressure;Samples;Min_cycle;Max_cycle;Signal;HPM_P1;HPM_P2
2023/02/19 00:01:24;;;;;;;24.02;15.95;;;11.40;99.90;;;;;;6067849;23;88959;-76
2023/02/19 00:04:00;;;;;;;24.88;15.57;;;11.40;99.90;;;;;;6068423;23;88341;-76
2023/02/19 00:06:30;;;;;;;21.02;15.00;;;11.40;99.90;;;;;;6068585;23;88548;-76
2023/02/19 00:08:57;;;;;;;23.08;13.73;;;11.30;99.90;;;;;;6042584;23;92028;-76
2023/02/19 00:11:27;;;;;;;21.00;13.80;;;11.30;99.90;;;;;;6042855;23;89354;-76
2023/02/19 00:13:56;;;;;;;25.48;15.55;;;11.30;99.90;;;;;;6068529;23;88737;-76
2023/02/19 00:16:28;;;;;;;20.58;13.32;;;11.30;99.90;;;;;;6018140;23;90719;-75
2023/02/19 00:18:57;;;;;;;21.65;14.15;;;11.30;99.90;;;;;;6068233;23;89359;-76
2023/02/19 00:21:24;;;;;;;22.40;13.52;;;11.20;99.90;;;;;;6042529;23;89423;-76
2023/02/19 00:24:03;;;;;;;19.65;14.55;;;11.20;99.90;;;;;;6067010;23;88475;-75
2023/02/19 00:26:31;;;;;;;20.45;13.38;;;11.20;99.90;;;;;;6042761;23;88828;-76
2023/02/19 00:28:59;;;;;;;24.08;15.25;;;11.20;99.90;;;;;;6068144;23;89444;-75
2023/02/19 00:31:29;;;;;;;21.25;13.82;;;11.20;99.90;;;;;;6018154;23;91202;-76
2023/02/19 00:34:01;;;;;;;22.42;13.68;;;11.20;99.90;;;;;;6043183;23;88404;-76
2023/02/19 00:36:29;;;;;;;21.83;13.27;;;11.20;99.90;;;;;;6041954;23;94479;-75
2023/02/19 00:38:56;;;;;;;20.27;13.50;;;11.20;99.90;;;;;;6066839;23;89409;-75
2023/02/19 00:41:24;;;;;;;17.27;12.65;;;11.20;99.90;;;;;;6041837;23;92570;-75
2023/02/19 00:43:58;;;;;;;22.23;13.90;;;11.20;99.90;;;;;;6068246;23;88481;-75
2023/02/19 00:46:27;;;;;;;21.92;13.55;;;11.20;99.90;;;;;;6041772;23;91728;-75
2023/02/19 00:48:55;;;;;;;21.85;13.65;;;11.20;99.90;;;;;;6042232;23;92137;-76
2023/02/19 00:51:24;;;;;;;19.15;13.48;;;11.20;99.90;;;;;;6042703;23;88914;-75
2023/02/19 00:53:51;;;;;;;21.17;13.70;;;11.20;99.90;;;;;;6042056;23;90910;-75
2023/02/19 00:56:19;;;;;;;16.75;12.65;;;11.20;99.90;;;;;;6068014;23;88413;-75
2023/02/19 00:58:46;;;;;;;20.77;13.38;;;11.20;99.90;;;;;;6067801;23;89691;-76
2023/02/19 01:01:13;;;;;;;22.33;13.52;;;11.20;99.90;;;;;;6068157;23;89103;-76
2023/02/19 01:03:41;;;;;;;24.15;14.50;;;11.20;99.90;;;;;;5994961;23;90037;-76
2023/02/19 01:06:09;;;;;;;24.50;14.07;;;11.20;99.90;;;;;;6068015;23;88884;-75
2023/02/19 01:08:37;;;;;;;21.73;14.02;;;11.20;99.90;;;;;;6068246;23;89454;-76
2023/02/19 01:11:05;;;;;;;24.05;14.52;;;11.30;99.90;;;;;;6041640;23;91734;-76
2023/02/19 01:13:34;;;;;;;21.33;14.35;;;11.30;99.90;;;;;;6041980;23;90875;-76
2023/02/19 01:16:06;;;;;;;22.95;13.52;;;11.20;99.90;;;;;;6041663;23;91614;-76
2023/02/19 01:18:34;;;;;;;22.83;13.65;;;11.20;99.90;;;;;;6042273;23;92025;-76
2023/02/19 01:21:07;;;;;;;21.58;13.63;;;11.20;99.90;;;;;;6042083;23;88916;-76
2023/02/19 01:23:35;;;;;;;21.40;12.52;;;11.20;99.90;;;;;;6042271;23;91271;-76
2023/02/19 01:26:08;;;;;;;21.33;12.57;;;11.20;99.90;;;;;;6017875;23;91144;-76
2023/02/19 01:28:35;;;;;;;18.10;12.40;;;11.20;99.90;;;;;;6018672;23;90457;-76
2023/02/19 01:31:04;;;;;;;17.25;12.13;;;11.10;99.90;;;;;;6042453;23;88537;-76
2023/02/19 01:33:32;;;;;;;19.30;12.95;;;11.10;99.90;;;;;;6018276;23;91257;-76
2023/02/19 01:36:01;;;;;;;20.35;12.18;;;11.00;99.90;;;;;;6041683;23;91101;-76
2023/02/19 01:38:28;;;;;;;19.20;12.00;;;11.10;99.90;;;;;;6041977;23;91498;-75
2023/02/19 01:41:03;;;;;;;20.45;12.45;;;11.10;99.90;;;;;;6066451;23;91565;-75
2023/02/19 01:43:53;;;;;;;20.58;11.75;;;11.00;99.90;;;;;;6042360;23;90794;-76
2023/02/19 01:46:23;;;;;;;23.67;12.32;;;11.00;99.90;;;;;;6042238;23;88853;-75
2023/02/19 01:48:50;;;;;;;19.05;12.10;;;11.00;99.90;;;;;;6018533;23;92255;-75
2023/02/19 01:51:19;;;;;;;19.35;12.50;;;11.00;99.90;;;;;;6067888;23;89235;-75
2023/02/19 01:53:53;;;;;;;18.25;11.65;;;11.00;99.90;;;;;;6068384;23;88435;-76
2023/02/19 01:56:23;;;;;;;20.65;12.27;;;11.00;99.90;;;;;;6067917;23;88837;-75
2023/02/19 01:58:50;;;;;;;16.63;10.88;;;11.00;99.90;;;;;;6041553;23;92251;-75
2023/02/19 02:01:17;;;;;;;17.33;10.02;;;11.00;99.90;;;;;;6041539;23;91761;-76
2023/02/19 02:03:47;;;;;;;18.05;10.68;;;11.00;99.90;;;;;;6068109;23;88426;-75
2023/02/19 02:06:24;;;;;;;18.33;11.13;;;11.00;99.90;;;;;;6067868;23;88876;-75
2023/02/19 02:11:50;;;;;;;20.17;11.38;;;11.00;99.90;;;;;;6068247;23;88826;-76
2023/02/19 02:14:24;;;;;;;16.95;10.63;;;11.00;99.90;;;;;;6042039;23;90049;-76
2023/02/19 02:17:18;;;;;;;19.48;10.98;;;11.00;99.90;;;;;;6018024;23;91238;-76
2023/02/19 02:20:14;;;;;;;17.42;10.10;;;11.00;99.90;;;;;;6042344;23;91774;-76
2023/02/19 02:23:06;;;;;;;18.23;10.65;;;11.00;99.90;;;;;;6012260;23;91674;-76
2023/02/19 02:25:57;;;;;;;14.30;9.25;;;11.00;99.90;;;;;;6042078;23;91235;-76
2023/02/19 02:28:36;;;;;;;15.32;9.68;;;10.90;99.90;;;;;;6042364;23;91827;-76
2023/02/19 02:31:04;;;;;;;3.97;2.67;;;10.80;99.90;;;;;;6042887;23;90725;-76
2023/02/19 02:34:03;;;;;;;2.10;1.58;;;10.60;99.90;;;;;;6018791;23;87924;-76
2023/02/19 02:36:37;;;;;;;2.85;1.85;;;10.20;99.90;;;;;;6042436;23;89402;-76
2023/02/19 02:39:07;;;;;;;1.73;1.63;;;9.80;99.90;;;;;;6042454;23;89738;-75
2023/02/19 02:42:25;;;;;;;2.20;2.00;;;9.50;99.90;;;;;;6018929;23;90390;-75
2023/02/19 02:44:36;;;;;;;2.15;1.95;;;9.20;99.90;;;;;;6042294;23;88575;-75
2023/02/19 02:47:06;;;;;;;2.90;2.10;;;9.00;99.90;;;;;;6067387;23;90905;-75
2023/02/19 02:50:03;;;;;;;2.53;2.30;;;8.90;99.90;;;;;;6068501;23;88485;-75
2023/02/19 02:55:10;;;;;;;1.65;1.55;;;8.60;99.90;;;;;;6022343;23;89155;-75
2023/02/19 02:57:37;;;;;;;1.75;1.27;;;8.60;99.90;;;;;;6042536;23;91148;-75
2023/02/19 03:00:05;;;;;;;1.67;1.50;;;8.40;99.90;;;;;;6066759;23;91380;-75
2023/02/19 03:02:33;;;;;;;2.35;2.03;;;8.30;99.90;;;;;;6042197;23;90759;-75
2023/02/19 03:08:08;;;;;;;2.08;1.75;;;8.20;99.90;;;;;;6042762;23;90660;-75
2023/02/19 03:10:43;;;;;;;2.63;2.22;;;8.20;99.90;;;;;;6041949;23;88679;-75
2023/02/19 03:21:44;;;;;;;2.33;1.95;;;8.00;99.90;;;;;;6042049;23;92522;-75
2023/02/19 03:27:01;;;;;;;2.45;2.00;;;7.80;99.90;;;;;;6042824;23;89076;-75
2023/02/19 03:29:36;;;;;;;2.80;2.30;;;7.80;99.90;;;;;;6041947;23;90310;-75
2023/02/19 03:32:34;;;;;;;3.15;2.47;;;7.70;99.90;;;;;;6042187;23;90563;-75
2023/02/19 03:35:15;;;;;;;3.00;2.20;;;7.70;99.90;;;;;;6012217;23;91148;-75
2023/02/19 03:38:10;;;;;;;2.88;2.25;;;7.80;99.90;;;;;;6069455;23;87928;-75
2023/02/19 03:40:55;;;;;;;3.30;2.60;;;7.70;99.90;;;;;;6043615;23;90744;-75
2023/02/19 03:43:44;;;;;;;3.33;2.45;;;7.70;99.90;;;;;;6043494;23;91028;-75
2023/02/19 03:46:22;;;;;;;2.85;2.15;;;7.80;99.90;;;;;;6019504;23;90569;-75
2023/02/19 03:49:04;;;;;;;3.40;2.33;;;7.80;99.90;;;;;;6043405;23;88997;-75
2023/02/19 03:51:42;;;;;;;3.33;2.60;;;7.80;99.90;;;;;;6043502;23;90725;-75
2023/02/19 03:54:34;;;;;;;4.43;2.58;;;7.80;99.90;;;;;;6043757;23;91579;-75
2023/02/19 03:57:09;;;;;;;3.85;2.42;;;7.80;99.90;;;;;;6019659;23;90878;-75
2023/02/19 04:00:02;;;;;;;2.30;2.00;;;7.70;99.90;;;;;;6043233;23;89286;-75
2023/02/19 04:02:46;;;;;;;2.92;2.50;;;7.80;99.90;;;;;;6069504;23;88283;-75
2023/02/19 04:05:24;;;;;;;4.28;2.83;;;7.70;99.90;;;;;;6043589;23;91258;-75
2023/02/19 04:07:56;;;;;;;5.30;3.20;;;7.70;99.90;;;;;;6044074;23;91019;-75
2023/02/19 04:10:29;;;;;;;5.63;3.25;;;7.60;99.90;;;;;;6042854;23;88034;-75
2023/02/19 04:13:10;;;;;;;3.95;2.92;;;7.60;99.90;;;;;;6019777;23;89430;-75
2023/02/19 04:15:41;;;;;;;3.60;3.05;;;7.60;99.90;;;;;;6067294;23;92003;-75
2023/02/19 04:18:14;;;;;;;5.97;4.00;;;7.50;99.90;;;;;;6069430;23;89033;-75
2023/02/19 04:20:44;;;;;;;5.30;3.85;;;7.50;99.90;;;;;;6069392;23;87951;-75
2023/02/19 04:23:13;;;;;;;6.78;4.65;;;7.50;99.90;;;;;;6069533;23;88158;-75
2023/02/19 04:25:44;;;;;;;7.78;3.85;;;7.50;99.90;;;;;;6069311;23;88785;-75
2023/02/19 04:28:15;;;;;;;5.85;3.92;;;7.40;99.90;;;;;;6043867;23;88532;-75
2023/02/19 04:30:44;;;;;;;6.25;4.18;;;7.30;99.90;;;;;;6043456;23;88416;-75
2023/02/19 04:33:11;;;;;;;4.43;3.00;;;7.30;99.90;;;;;;6067609;23;100735;-75
2023/02/19 04:35:38;;;;;;;5.30;3.67;;;7.20;99.90;;;;;;6019123;23;91277;-75
2023/02/19 04:38:05;;;;;;;8.38;4.72;;;7.20;99.90;;;;;;6043669;23;88059;-75
2023/02/19 04:40:32;;;;;;;8.25;4.20;;;7.10;99.90;;;;;;6042595;23;89118;-75
2023/02/19 04:42:59;;;;;;;6.20;3.90;;;7.10;99.90;;;;;;6069438;23;88249;-75
2023/02/19 04:45:26;;;;;;;5.70;3.20;;;7.10;99.90;;;;;;6043552;23;88044;-75
2023/02/19 04:47:53;;;;;;;3.88;2.40;;;7.10;99.90;;;;;;6069127;23;88429;-75
2023/02/19 04:50:21;;;;;;;4.85;2.88;;;7.10;99.90;;;;;;6043690;23;88068;-75
2023/02/19 04:52:48;;;;;;;4.82;2.42;;;7.00;99.90;;;;;;6068805;23;96918;-75
2023/02/19 04:55:16;;;;;;;4.97;2.97;;;6.90;99.90;;;;;;6043534;23;88937;-75
2023/02/19 04:57:43;;;;;;;5.30;2.55;;;6.90;99.90;;;;;;6043280;23;91219;-75
2023/02/19 05:00:12;;;;;;;3.95;2.72;;;6.80;99.90;;;;;;6043069;23;88099;-75
2023/02/19 05:02:39;;;;;;;2.85;1.95;;;6.80;99.90;;;;;;6042749;23;91346;-75
2023/02/19 05:05:07;;;;;;;4.78;2.72;;;6.80;99.90;;;;;;6042595;23;90713;-75
2023/02/19 05:07:34;;;;;;;3.10;2.20;;;6.80;99.90;;;;;;6042739;23;92227;-75
2023/02/19 05:10:01;;;;;;;3.45;2.38;;;6.80;99.90;;;;;;6069391;23;87969;-75
2023/02/19 05:12:30;;;;;;;3.22;2.30;;;6.80;99.90;;;;;;6069177;23;89061;-75
2023/02/19 05:14:57;;;;;;;2.85;1.85;;;6.70;99.90;;;;;;6069259;23;88704;-75
2023/02/19 05:17:24;;;;;;;4.00;1.95;;;6.70;99.90;;;;;;6043012;23;89616;-75
2023/02/19 05:19:51;;;;;;;2.75;1.52;;;6.60;99.90;;;;;;6042900;23;88254;-75
2023/02/19 05:22:18;;;;;;;2.40;1.80;;;6.60;99.90;;;;;;6043639;23;89588;-75
2023/02/19 05:24:44;;;;;;;3.22;1.95;;;6.60;99.90;;;;;;6068920;23;88709;-75
2023/02/19 05:27:12;;;;;;;4.15;2.20;;;6.60;99.90;;;;;;6043324;23;88590;-75
2023/02/19 05:29:38;;;;;;;2.63;1.67;;;6.60;99.90;;;;;;6068583;23;89046;-75
2023/02/19 05:32:05;;;;;;;3.20;2.10;;;6.50;99.90;;;;;;6019246;23;89886;-75
2023/02/19 05:34:32;;;;;;;4.05;2.20;;;6.60;99.90;;;;;;6019128;23;91270;-75
2023/02/19 05:36:59;;;;;;;4.40;2.30;;;6.60;99.90;;;;;;6069194;23;88469;-75
2023/02/19 05:39:26;;;;;;;4.07;2.58;;;6.70;99.90;;;;;;6043455;23;88005;-75
2023/02/19 05:41:53;;;;;;;5.20;3.03;;;6.70;99.90;;;;;;6042778;23;91195;-75
2023/02/19 05:44:20;;;;;;;3.70;2.25;;;6.60;99.90;;;;;;6069150;23;88852;-75
2023/02/19 05:46:47;;;;;;;4.72;2.80;;;6.70;99.90;;;;;;6069385;23;88622;-75
2023/02/19 05:49:14;;;;;;;4.57;3.22;;;6.60;99.90;;;;;;6043135;23;89233;-75
2023/02/19 05:51:41;;;;;;;9.07;3.50;;;6.60;99.90;;;;;;6018963;23;90342;-75
2023/02/19 05:54:09;;;;;;;6.65;3.08;;;6.70;99.90;;;;;;6068671;23;89428;-75
2023/02/19 05:56:38;;;;;;;7.40;3.47;;;6.70;99.90;;;;;;6043209;23;92026;-75
2023/02/19 05:59:20;;;;;;;7.45;3.28;;;6.80;99.90;;;;;;6042313;23;88161;-75
2023/02/19 06:01:52;;;;;;;6.53;3.53;;;6.80;99.90;;;;;;6042532;23;90927;-75
2023/02/19 06:04:19;;;;;;;6.88;3.60;;;6.80;99.90;;;;;;6043466;23;88709;-75
2023/02/19 06:06:47;;;;;;;5.57;2.97;;;6.90;99.90;;;;;;6068890;23;88281;-75
2023/02/19 06:09:14;;;;;;;7.32;3.85;;;6.90;99.90;;;;;;6069184;23;88634;-75
2023/02/19 06:11:42;;;;;;;6.20;3.50;;;6.90;99.90;;;;;;6067430;23;91323;-75
2023/02/19 06:14:12;;;;;;;6.18;3.40;;;6.80;99.90;;;;;;6069024;23;88820;-75
2023/02/19 06:16:39;;;;;;;7.57;3.90;;;6.90;99.90;;;;;;6043400;23;88563;-75
2023/02/19 06:19:06;;;;;;;7.30;3.53;;;6.90;99.90;;;;;;6068502;23;88798;-75
2023/02/19 06:21:33;;;;;;;7.65;3.35;;;6.90;99.90;;;;;;6042894;23;91045;-75
2023/02/19 06:24:05;;;;;;;5.25;3.00;;;6.80;99.90;;;;;;6042743;23;91466;-75
2023/02/19 06:26:32;;;;;;;5.65;3.10;;;6.80;99.90;;;;;;6043018;23;91316;-75
2023/02/19 06:28:59;;;;;;;5.80;3.30;;;6.80;99.90;;;;;;6068803;23;88023;-75
2023/02/19 06:31:26;;;;;;;5.18;2.88;;;6.80;99.90;;;;;;6068985;23;87966;-75
2023/02/19 06:33:53;;;;;;;4.22;2.72;;;6.80;99.90;;;;;;6068603;23;88589;-75
2023/02/19 06:36:21;;;;;;;4.88;3.58;;;6.80;99.90;;;;;;6069504;23;88651;-75
2023/02/19 06:38:48;;;;;;;5.53;3.33;;;6.80;99.90;;;;;;6042926;23;88064;-75
2023/02/19 06:41:16;;;;;;;6.60;3.00;;;6.80;99.90;;;;;;6068878;23;88275;-75
2023/02/19 06:43:43;;;;;;;5.80;3.33;;;6.80;99.90;;;;;;6042061;23;98131;-75
2023/02/19 06:46:11;;;;;;;7.88;4.00;;;6.80;99.90;;;;;;6018781;23;91904;-75
2023/02/19 06:48:40;;;;;;;5.32;3.00;;;6.80;99.90;;;;;;6018757;23;88704;-75
2023/02/19 06:51:14;;;;;;;9.63;4.20;;;6.80;99.90;;;;;;6042838;23;88085;-75
2023/02/19 06:53:41;;;;;;;5.43;2.75;;;6.80;99.90;;;;;;6043262;23;88906;-75
2023/02/19 06:56:28;;;;;;;2.22;1.70;;;6.80;99.90;;;;;;6042884;23;88586;-76
2023/02/19 06:59:00;;;;;;;2.80;2.00;;;6.80;99.90;;;;;;6042098;23;89100;-75
2023/02/19 07:01:29;;;;;;;3.28;2.08;;;6.70;99.90;;;;;;6069114;23;88299;-75
2023/02/19 07:03:56;;;;;;;2.20;1.83;;;6.70;99.90;;;;;;6068364;23;88647;-75
2023/02/19 07:06:25;;;;;;;3.72;1.92;;;6.70;99.90;;;;;;6068578;23;87982;-75
2023/02/19 07:08:53;;;;;;;3.30;2.10;;;6.70;99.90;;;;;;6068019;23;88687;-75
2023/02/19 07:11:20;;;;;;;4.88;2.35;;;6.70;99.90;;;;;;6067815;23;90104;-75
2023/02/19 07:13:52;;;;;;;4.75;2.50;;;6.70;99.90;;;;;;6069525;23;88787;-75
2023/02/19 07:16:19;;;;;;;3.53;2.63;;;6.80;99.90;;;;;;6043939;23;91207;-75
2023/02/19 07:18:46;;;;;;;4.40;2.70;;;6.90;99.90;;;;;;6043548;23;89250;-75
2023/02/19 07:21:14;;;;;;;4.85;2.95;;;6.90;99.90;;;;;;6020197;23;88320;-75
2023/02/19 07:23:42;;;;;;;5.60;3.00;;;7.00;99.90;;;;;;6043249;23;102389;-76
2023/02/19 07:26:12;;;;;;;5.07;3.10;;;7.00;99.90;;;;;;6043662;23;91085;-76
2023/02/19 07:28:43;;;;;;;7.47;3.35;;;7.00;99.90;;;;;;6043518;23;89670;-75
2023/02/19 07:31:11;;;;;;;5.32;3.28;;;7.00;99.90;;;;;;6019612;23;89530;-75
2023/02/19 07:33:38;;;;;;;4.75;3.38;;;6.90;99.90;;;;;;6069345;23;89432;-76
2023/02/19 07:36:06;;;;;;;3.95;3.03;;;6.90;99.90;;;;;;6043858;23;89176;-76
2023/02/19 07:38:33;;;;;;;6.55;3.55;;;6.80;99.90;;;;;;6043419;23;88007;-76
2023/02/19 07:41:02;;;;;;;4.07;3.28;;;6.80;99.90;;;;;;6069601;23;88382;-75
2023/02/19 07:43:32;;;;;;;4.90;3.65;;;6.80;99.90;;;;;;6044062;23;88027;-75
2023/02/19 07:46:02;;;;;;;6.85;3.95;;;6.80;99.90;;;;;;6043448;23;93676;-75
2023/02/19 07:48:29;;;;;;;5.28;3.92;;;6.80;99.90;;;;;;6019953;23;88082;-75
2023/02/19 07:50:58;;;;;;;5.07;3.60;;;6.70;99.90;;;;;;6069555;23;94445;-75
2023/02/19 07:53:27;;;;;;;6.28;3.65;;;6.90;99.90;;;;;;6069509;23;88855;-75
2023/02/19 07:56:05;;;;;;;4.90;3.22;;;7.00;99.90;;;;;;6069306;23;88514;-76
2023/02/19 07:58:33;;;;;;;3.97;3.60;;;7.10;99.90;;;;;;6043707;23;88693;-75
2023/02/19 08:02:58;;;;;;;4.82;3.50;;;7.30;99.90;;;;;;6042927;23;91132;-75
2023/02/19 08:04:06;;;;;;;5.90;3.30;;;7.40;99.90;;;;;;6069288;23;88658;-75
2023/02/19 08:06:33;;;;;;;3.50;2.60;;;7.50;99.90;;;;;;6043430;23;89648;-75
2023/02/19 08:09:00;;;;;;;4.22;2.75;;;7.60;99.90;;;;;;6069473;23;87959;-76
2023/02/19 08:14:12;;;;;;;3.88;2.92;;;7.80;99.90;;;;;;6042773;23;92212;-76
2023/02/19 08:16:39;;;;;;;3.47;3.03;;;7.90;99.90;;;;;;6044238;23;88702;-76
2023/02/19 08:19:09;;;;;;;3.00;2.00;;;8.10;99.90;;;;;;6067867;23;88058;-76
2023/02/19 08:21:36;;;;;;;2.95;2.75;;;8.20;99.90;;;;;;6043576;23;88458;-76
2023/02/19 08:24:03;;;;;;;2.97;1.88;;;8.30;99.90;;;;;;6018777;23;92628;-76
2023/02/19 08:26:31;;;;;;;3.17;2.00;;;8.40;99.90;;;;;;6043763;23;89311;-76
2023/02/19 08:28:58;;;;;;;3.45;2.30;;;8.60;99.90;;;;;;6043484;23;88003;-76
2023/02/19 08:31:26;;;;;;;3.83;1.77;;;8.70;99.90;;;;;;6069474;23;88291;-76
2023/02/19 08:33:53;;;;;;;2.47;1.80;;;8.70;99.90;;;;;;6043790;23;88577;-76
2023/02/19 08:36:20;;;;;;;4.10;1.75;;;8.70;99.90;;;;;;6043365;23;94298;-76
2023/02/19 08:38:47;;;;;;;3.45;1.77;;;8.60;99.90;;;;;;6043882;23;88104;-76
2023/02/19 08:41:14;;;;;;;2.05;1.50;;;8.50;99.90;;;;;;6069592;23;88216;-76
2023/02/19 08:43:42;;;;;;;5.90;1.90;;;8.50;99.90;;;;;;6069313;23;89259;-76
2023/02/19 08:46:12;;;;;;;2.95;1.48;;;8.40;99.90;;;;;;6043466;23;88679;-76
2023/02/19 08:48:40;;;;;;;3.95;1.98;;;8.30;99.90;;;;;;6069132;23;88726;-76
2023/02/19 08:51:09;;;;;;;3.47;1.63;;;8.20;99.90;;;;;;6069117;23;88226;-76
2023/02/19 08:53:38;;;;;;;2.90;1.50;;;8.20;99.90;;;;;;6069363;23;88087;-76
2023/02/19 08:56:06;;;;;;;2.70;1.70;;;8.10;99.90;;;;;;6042826;23;91096;-76
2023/02/19 08:58:34;;;;;;;4.35;1.27;;;8.10;99.90;;;;;;6043168;23;89572;-76
2023/02/19 09:01:01;;;;;;;4.35;1.40;;;8.00;99.90;;;;;;6042936;23;90921;-76
2023/02/19 09:03:28;;;;;;;2.13;1.50;;;8.00;99.90;;;;;;6069291;23;88006;-76
2023/02/19 09:05:56;;;;;;;1.35;1.02;;;8.00;99.90;;;;;;6069175;23;99250;-76
2023/02/19 09:08:22;;;;;;;1.05;1.00;;;8.00;99.90;;;;;;6043455;23;88200;-76
2023/02/19 09:11:00;;;;;;;3.17;1.10;;;8.10;99.90;;;;;;6043513;23;88103;-76
2023/02/19 09:13:27;;;;;;;1.30;0.88;;;8.20;99.90;;;;;;6068643;23;88707;-76
2023/02/19 09:15:55;;;;;;;3.33;1.00;;;8.20;99.90;;;;;;6069187;23;88136;-76
2023/02/19 09:18:24;;;;;;;1.08;0.98;;;8.20;99.90;;;;;;6068991;23;87917;-76
2023/02/19 09:20:51;;;;;;;3.03;1.75;;;8.20;99.90;;;;;;6069269;23;88411;-76
2023/02/19 09:23:18;;;;;;;2.47;1.38;;;8.20;99.90;;;;;;6068924;23;88829;-76
2023/02/19 09:25:45;;;;;;;2.63;1.50;;;8.20;99.90;;;;;;6043137;23;89767;-76
2023/02/19 09:28:12;;;;;;;2.20;0.98;;;8.20;99.90;;;;;;6042978;23;88302;-76
2023/02/19 09:30:39;;;;;;;3.67;1.20;;;8.30;99.90;;;;;;6044077;23;88055;-76
2023/02/19 09:33:06;;;;;;;2.47;1.00;;;8.30;99.90;;;;;;6042319;23;91812;-76
2023/02/19 09:35:36;;;;;;;2.33;1.08;;;8.30;99.90;;;;;;6043435;23;88485;-76
2023/02/19 09:38:03;;;;;;;3.10;1.80;;;8.40;99.90;;;;;;6068831;23;88608;-76
2023/02/19 09:40:31;;;;;;;2.85;1.17;;;8.50;99.90;;;;;;6042702;23;91116;-76
2023/02/19 09:42:58;;;;;;;3.97;1.60;;;8.50;99.90;;;;;;6043453;23;88494;-76
2023/02/19 09:45:28;;;;;;;5.15;1.95;;;8.60;99.90;;;;;;6042642;23;91055;-76
2023/02/19 09:47:57;;;;;;;1.90;1.80;;;8.70;99.90;;;;;;6043206;23;88432;-76
2023/02/19 09:50:38;;;;;;;1.58;1.30;;;8.80;99.90;;;;;;6068807;23;88306;-76
2023/02/19 09:53:18;;;;;;;3.30;1.52;;;8.90;99.90;;;;;;6043567;23;88758;-76
2023/02/19 09:55:45;;;;;;;2.20;1.05;;;9.00;99.90;;;;;;6069611;23;88514;-76
2023/02/19 09:58:32;;;;;;;1.27;0.93;;;9.10;99.90;;;;;;6018654;23;88020;-76
2023/02/19 10:01:04;;;;;;;2.63;0.80;;;9.20;99.90;;;;;;6042989;23;88281;-76
2023/02/19 10:03:38;;;;;;;2.10;1.00;;;9.20;99.90;;;;;;6042863;23;89353;-76
2023/02/19 10:06:10;;;;;;;1.63;1.00;;;9.30;99.90;;;;;;6043326;23;89152;-76
2023/02/19 10:08:40;;;;;;;2.60;1.10;;;9.50;99.90;;;;;;6069275;23;87998;-76
2023/02/19 10:11:11;;;;;;;2.97;1.38;;;9.80;99.90;;;;;;6043020;23;91356;-76
2023/02/19 10:13:53;;;;;;;1.95;1.00;;;10.10;99.90;;;;;;6043052;23;91264;-76
2023/02/19 10:16:25;;;;;;;2.20;1.15;;;10.40;99.90;;;;;;6043232;23;88277;-76
2023/02/19 10:18:52;;;;;;;2.17;0.90;;;10.50;99.90;;;;;;6069184;23;88066;-76
2023/02/19 10:21:22;;;;;;;1.85;1.75;;;10.60;99.90;;;;;;6069211;23;88275;-76
2023/02/19 10:23:58;;;;;;;1.70;1.13;;;10.60;99.90;;;;;;6043389;23;88834;-76
2023/02/19 10:26:26;;;;;;;2.42;1.33;;;10.40;99.90;;;;;;6042752;23;91111;-76
2023/02/19 10:28:54;;;;;;;1.90;1.20;;;10.30;99.90;;;;;;6019177;23;88642;-76
2023/02/19 10:31:23;;;;;;;1.45;1.30;;;10.40;99.90;;;;;;6042445;23;90939;-76
2023/02/19 10:33:56;;;;;;;3.92;1.70;;;10.40;99.90;;;;;;6042791;23;91272;-76
2023/02/19 10:36:32;;;;;;;3.05;2.10;;;10.50;99.90;;;;;;6068547;23;88593;-76
2023/02/19 10:39:21;;;;;;;2.97;2.67;;;10.60;99.90;;;;;;6068924;23;87987;-76
2023/02/19 10:41:50;;;;;;;3.17;2.80;;;10.50;99.90;;;;;;6068789;23;88459;-76
2023/02/19 10:44:26;;;;;;;3.17;2.50;;;10.30;99.90;;;;;;6068527;23;88812;-76
2023/02/19 10:46:56;;;;;;;5.55;3.10;;;10.10;99.90;;;;;;6069223;23;88240;-76
2023/02/19 10:49:30;;;;;;;4.75;2.75;;;9.90;99.90;;;;;;6042315;23;89540;-76
2023/02/19 10:52:16;;;;;;;3.35;3.05;;;9.80;99.90;;;;;;6043218;23;88176;-76
2023/02/19 10:54:44;;;;;;;4.70;3.13;;;9.70;99.90;;;;;;6068039;23;88640;-76
2023/02/19 10:57:15;;;;;;;3.92;2.83;;;9.60;99.90;;;;;;6042709;23;89417;-76
2023/02/19 10:59:57;;;;;;;4.15;2.70;;;9.60;99.90;;;;;;6068145;23;87938;-76
2023/02/19 11:02:25;;;;;;;3.65;2.40;;;9.70;99.90;;;;;;6068495;23;87971;-76
2023/02/19 11:05:22;;;;;;;4.43;2.97;;;9.90;99.90;;;;;;6068648;23;88829;-76
2023/02/19 11:07:55;;;;;;;4.13;3.63;;;10.50;99.90;;;;;;6066303;23;89341;-76
2023/02/19 11:10:25;;;;;;;3.97;2.63;;;10.80;99.90;;;;;;6069890;23;98611;-76
2023/02/19 11:12:55;;;;;;;4.68;2.70;;;10.90;99.90;;;;;;6098491;23;87537;-76
2023/02/19 11:15:29;;;;;;;3.65;2.50;;;11.00;99.90;;;;;;6072275;23;88808;-76
2023/02/19 11:18:12;;;;;;;2.00;1.45;;;11.20;99.90;;;;;;6096441;23;88057;-76
2023/02/19 11:20:55;;;;;;;4.75;1.58;;;11.20;99.90;;;;;;6046967;23;89243;-76
2023/02/19 11:23:30;;;;;;;1.88;1.52;;;11.00;99.90;;;;;;6098055;23;88264;-76
2023/02/19 11:26:01;;;;;;;2.28;1.98;;;10.90;99.90;;;;;;6097978;23;88732;-76
2023/02/19 11:28:35;;;;;;;2.22;1.58;;;10.80;99.90;;;;;;6071443;23;91257;-76
2023/02/19 11:31:17;;;;;;;2.08;1.50;;;10.70;99.90;;;;;;6098031;23;87896;-76
2023/02/19 11:34:02;;;;;;;2.05;1.52;;;10.70;99.90;;;;;;6095656;23;90999;-76
2023/02/19 11:36:37;;;;;;;2.80;1.40;;;10.70;99.90;;;;;;6096005;23;88720;-76
2023/02/19 11:39:15;;;;;;;3.88;1.70;;;10.70;99.90;;;;;;6098335;23;88553;-76
2023/02/19 11:42:10;;;;;;;2.72;1.95;;;10.80;99.90;;;;;;6041105;23;99548;-76
2023/02/19 11:44:49;;;;;;;2.00;1.80;;;11.00;99.90;;;;;;6068066;23;88214;-76
2023/02/19 11:47:40;;;;;;;1.58;1.30;;;11.30;99.90;;;;;;6068008;23;89139;-76
2023/02/19 11:50:31;;;;;;;1.35;1.17;;;11.70;99.90;;;;;;6068488;23;89108;-76
2023/02/19 11:53:23;;;;;;;3.05;1.30;;;11.80;99.90;;;;;;6068531;23;88072;-76
2023/02/19 11:56:15;;;;;;;3.47;1.45;;;11.70;99.90;;;;;;6066504;23;88241;-76
2023/02/19 11:58:59;;;;;;;1.80;1.70;;;11.50;99.90;;;;;;6069351;23;88777;-76
2023/02/19 12:01:29;;;;;;;4.13;1.20;;;11.30;99.90;;;;;;6066533;23;88687;-76
2023/02/19 12:04:17;;;;;;;1.95;1.73;;;11.00;99.90;;;;;;6069663;23;88287;-76
2023/02/19 12:07:09;;;;;;;2.60;1.65;;;10.90;99.90;;;;;;6069924;23;88464;-76
2023/02/19 12:09:50;;;;;;;1.90;1.63;;;10.80;99.90;;;;;;6069330;23;88683;-76
2023/02/19 12:12:17;;;;;;;2.72;1.95;;;10.60;99.90;;;;;;6043536;23;91099;-76
2023/02/19 12:14:44;;;;;;;1.48;1.30;;;10.60;99.90;;;;;;6043241;23;88715;-76
2023/02/19 12:17:40;;;;;;;1.98;1.50;;;10.50;99.90;;;;;;6069537;23;88388;-76
2023/02/19 12:20:30;;;;;;;1.85;1.60;;;10.60;99.90;;;;;;6049219;23;91563;-76
2023/02/19 12:23:06;;;;;;;5.78;1.88;;;10.90;99.90;;;;;;6069616;23;88756;-76
2023/02/19 12:25:55;;;;;;;1.60;1.50;;;11.00;99.90;;;;;;6042895;23;88069;-76
2023/02/19 12:28:46;;;;;;;2.20;1.63;;;11.30;99.90;;;;;;6069655;23;88207;-76
2023/02/19 12:31:37;;;;;;;2.72;1.83;;;11.50;99.90;;;;;;6043802;23;89324;-76
2023/02/19 12:34:43;;;;;;;2.85;1.20;;;11.60;99.90;;;;;;6044139;23;87477;-76
2023/02/19 12:37:13;;;;;;;2.85;1.42;;;11.90;99.90;;;;;;6003439;23;88113;-76
2023/02/19 12:40:11;;;;;;;2.95;1.30;;;12.00;99.90;;;;;;6069132;23;89402;-76
2023/02/19 12:42:47;;;;;;;2.67;1.10;;;12.20;99.90;;;;;;6066967;23;90913;-76
2023/02/19 12:45:30;;;;;;;2.30;1.10;;;12.40;99.90;;;;;;6067562;23;90513;-76
2023/02/19 12:48:16;;;;;;;2.85;1.15;;;12.50;99.90;;;;;;6069218;23;87930;-76
2023/02/19 12:50:46;;;;;;;1.95;1.30;;;12.60;99.90;;;;;;6067278;23;90979;-76
2023/02/19 12:53:19;;;;;;;1.65;0.90;;;12.70;99.90;;;;;;6069182;23;89868;-76
2023/02/19 12:55:47;;;;;;;1.60;1.10;;;12.80;99.90;;;;;;6067411;23;91229;-76
2023/02/19 12:58:55;;;;;;;3.92;1.30;;;12.80;99.90;;;;;;6067348;23;89307;-76
2023/02/19 13:01:27;;;;;;;4.45;1.50;;;12.90;99.90;;;;;;5956099;23;88386;-76
2023/02/19 13:04:12;;;;;;;2.92;1.30;;;12.90;99.90;;;;;;6028972;23;91621;-76
2023/02/19 13:06:45;;;;;;;2.00;1.10;;;12.80;99.90;;;;;;6019064;23;91121;-76
2023/02/19 13:09:20;;;;;;;2.60;0.97;;;12.80;99.90;;;;;;6068947;23;88780;-76
2023/02/19 13:12:17;;;;;;;2.13;0.85;;;12.70;99.90;;;;;;6069052;23;89028;-76
2023/02/19 13:14:48;;;;;;;3.08;0.93;;;12.60;99.90;;;;;;6057361;23;88705;-76
2023/02/19 13:17:22;;;;;;;2.53;1.00;;;12.50;99.90;;;;;;6043105;23;91260;-76
2023/02/19 13:20:12;;;;;;;1.58;1.00;;;12.40;99.90;;;;;;6067673;23;88802;-76
2023/02/19 13:26:03;;;;;;;3.28;1.40;;;12.40;99.90;;;;;;6067386;23;91265;-76
2023/02/19 13:29:02;;;;;;;3.00;1.13;;;12.40;99.90;;;;;;6043996;23;88722;-76
2023/02/19 13:31:51;;;;;;;2.97;1.25;;;12.40;99.90;;;;;;6069324;23;88207;-76
2023/02/19 13:34:43;;;;;;;2.28;1.23;;;12.40;99.90;;;;;;6067721;23;88306;-76
2023/02/19 13:37:11;;;;;;;3.67;1.50;;;12.40;99.90;;;;;;6043259;23;89385;-76
2023/02/19 13:39:49;;;;;;;2.30;1.02;;;12.40;99.90;;;;;;6067260;23;91982;-76
2023/02/19 13:42:26;;;;;;;1.88;1.13;;;12.40;99.90;;;;;;6067499;23;87928;-76
2023/02/19 13:44:54;;;;;;;0.98;0.82;;;12.50;99.90;;;;;;6069042;23;88007;-76